KQA412 HKJK-HUEN
Flight info
| Callsign | KQA412 |
|---|---|
| Flight time | N/A |
| Altitude | 36000 |
| Route | ANTUK2D APKUB UQ293 IMPOG IMPOG1A |
| Aircraft | B738/M-SDE2E3FGHIRWXY/LB1 |
Departure
| Time | N/A |
|---|---|
| Airport | Jomo Kenyatta International Airport (HKJK) |
Arrival
| Time | 2026-04-22 14:11 |
|---|---|
| Airport | Entebbe International Airport (HUEN) |
| Time | Latitude | Longitude | Altitude | Speed | Heading |
|---|---|---|---|---|---|
| 2026-04-22 13:42 | -0.18021 | 34.00528 | 36047 ft | 426 kts | 293° |
| 2026-04-22 13:42 | -0.16285 | 33.96437 | 36047 ft | 427 kts | 293° |
| 2026-04-22 13:43 | -0.15113 | 33.93695 | 36047 ft | 426 kts | 293° |
| 2026-04-22 13:43 | -0.13997 | 33.91088 | 36047 ft | 425 kts | 293° |
| 2026-04-22 13:44 | -0.12873 | 33.88459 | 36047 ft | 425 kts | 293° |
| 2026-04-22 13:44 | -0.11731 | 33.85790 | 36047 ft | 425 kts | 293° |
| 2026-04-22 13:45 | -0.10615 | 33.83180 | 35835 ft | 425 kts | 293° |
| 2026-04-22 13:45 | -0.10060 | 33.81882 | 35567 ft | 424 kts | 294° |
| 2026-04-22 13:45 | -0.09648 | 33.80919 | 35363 ft | 423 kts | 294° |
| 2026-04-22 13:46 | -0.09077 | 33.79584 | 34911 ft | 427 kts | 294° |
| 2026-04-22 13:46 | -0.08476 | 33.78177 | 34161 ft | 438 kts | 294° |
| 2026-04-22 13:46 | -0.07852 | 33.76718 | 33567 ft | 442 kts | 294° |
| 2026-04-22 13:46 | -0.07208 | 33.75213 | 33313 ft | 438 kts | 294° |
| 2026-04-22 13:47 | -0.06517 | 33.73597 | 32925 ft | 439 kts | 294° |
| 2026-04-22 13:47 | -0.05877 | 33.72099 | 32494 ft | 440 kts | 294° |
| 2026-04-22 13:47 | -0.05070 | 33.70211 | 32121 ft | 437 kts | 294° |
| 2026-04-22 13:47 | -0.04351 | 33.68529 | 31757 ft | 437 kts | 294° |
| 2026-04-22 13:48 | -0.03826 | 33.67301 | 31470 ft | 437 kts | 294° |
| 2026-04-22 13:48 | -0.03154 | 33.65729 | 31148 ft | 435 kts | 294° |
| 2026-04-22 13:48 | -0.02552 | 33.64321 | 30861 ft | 434 kts | 294° |
| 2026-04-22 13:48 | -0.01933 | 33.62871 | 30558 ft | 433 kts | 293° |
| 2026-04-22 13:49 | -0.01192 | 33.61139 | 30208 ft | 432 kts | 293° |
| 2026-04-22 13:49 | -0.00312 | 33.59081 | 29804 ft | 429 kts | 293° |
| 2026-04-22 13:49 | 0.00844 | 33.56377 | 29296 ft | 426 kts | 293° |
| 2026-04-22 13:49 | 0.01988 | 33.53699 | 28787 ft | 423 kts | 293° |
| 2026-04-22 13:50 | 0.03130 | 33.50991 | 28272 ft | 420 kts | 291° |
| 2026-04-22 13:50 | 0.04119 | 33.48311 | 27772 ft | 417 kts | 289° |
| 2026-04-22 13:50 | 0.05038 | 33.45623 | 27274 ft | 414 kts | 289° |
| 2026-04-22 13:50 | 0.05957 | 33.42991 | 26784 ft | 411 kts | 289° |
| 2026-04-22 13:51 | 0.06898 | 33.40352 | 26292 ft | 408 kts | 289° |
| 2026-04-22 13:51 | 0.07842 | 33.37703 | 25796 ft | 405 kts | 289° |
| 2026-04-22 13:51 | 0.08767 | 33.35104 | 25310 ft | 403 kts | 289° |
| 2026-04-22 13:51 | 0.09643 | 33.32643 | 24849 ft | 400 kts | 289° |
| 2026-04-22 13:52 | 0.10504 | 33.30232 | 24396 ft | 397 kts | 289° |
| 2026-04-22 13:52 | 0.12019 | 33.25988 | 23597 ft | 393 kts | 289° |
| 2026-04-22 13:52 | 0.12819 | 33.23747 | 23174 ft | 390 kts | 289° |
| 2026-04-22 13:53 | 0.13698 | 33.21284 | 22709 ft | 388 kts | 289° |
| 2026-04-22 13:53 | 0.14579 | 33.18819 | 22242 ft | 385 kts | 289° |
| 2026-04-22 13:53 | 0.15023 | 33.17576 | 22006 ft | 384 kts | 289° |
| 2026-04-22 13:53 | 0.15866 | 33.15215 | 21558 ft | 382 kts | 289° |
| 2026-04-22 13:54 | 0.16290 | 33.14031 | 21334 ft | 380 kts | 289° |
| 2026-04-22 13:54 | 0.16774 | 33.12675 | 21076 ft | 379 kts | 289° |
| 2026-04-22 13:54 | 0.17252 | 33.11338 | 20821 ft | 377 kts | 289° |
| 2026-04-22 13:54 | 0.17605 | 33.10350 | 20634 ft | 376 kts | 289° |
| 2026-04-22 13:55 | 0.18076 | 33.09032 | 20383 ft | 375 kts | 289° |
| 2026-04-22 13:55 | 0.18706 | 33.07268 | 20046 ft | 373 kts | 289° |
| 2026-04-22 13:55 | 0.19561 | 33.04878 | 19589 ft | 371 kts | 289° |
| 2026-04-22 13:55 | 0.20422 | 33.02468 | 19127 ft | 368 kts | 289° |
| 2026-04-22 13:56 | 0.21264 | 33.00113 | 18675 ft | 366 kts | 289° |
| 2026-04-22 13:56 | 0.22109 | 32.97749 | 18221 ft | 364 kts | 289° |
| 2026-04-22 13:56 | 0.22922 | 32.95472 | 17783 ft | 362 kts | 289° |
| 2026-04-22 13:56 | 0.23644 | 32.93454 | 17395 ft | 360 kts | 289° |
| 2026-04-22 13:57 | 0.24068 | 32.92267 | 17063 ft | 357 kts | 290° |
| 2026-04-22 13:57 | 0.24520 | 32.91002 | 16553 ft | 357 kts | 289° |
| 2026-04-22 13:57 | 0.24929 | 32.89857 | 16216 ft | 353 kts | 289° |
| 2026-04-22 13:57 | 0.25387 | 32.88576 | 15747 ft | 351 kts | 289° |
| 2026-04-22 13:58 | 0.25820 | 32.87365 | 15324 ft | 349 kts | 289° |
| 2026-04-22 13:58 | 0.26081 | 32.86634 | 15073 ft | 348 kts | 289° |
| 2026-04-22 13:58 | 0.26875 | 32.84412 | 14290 ft | 344 kts | 289° |
| 2026-04-22 13:58 | 0.27664 | 32.82206 | 13513 ft | 340 kts | 289° |
| 2026-04-22 13:59 | 0.28452 | 32.79999 | 12733 ft | 337 kts | 289° |
| 2026-04-22 13:59 | 0.29218 | 32.77856 | 11985 ft | 333 kts | 289° |
| 2026-04-22 13:59 | 0.29824 | 32.75715 | 11432 ft | 322 kts | 278° |
| 2026-04-22 13:59 | 0.29889 | 32.74498 | 11166 ft | 318 kts | 267° |
| 2026-04-22 14:00 | 0.29771 | 32.73326 | 10924 ft | 327 kts | 262° |
| 2026-04-22 14:00 | 0.29435 | 32.71064 | 10506 ft | 332 kts | 262° |
| 2026-04-22 14:00 | 0.29122 | 32.68867 | 10312 ft | 322 kts | 262° |
| 2026-04-22 14:00 | 0.28822 | 32.66702 | 10164 ft | 312 kts | 262° |
| 2026-04-22 14:01 | 0.28529 | 32.64610 | 9829 ft | 309 kts | 262° |
| 2026-04-22 14:01 | 0.28235 | 32.62524 | 9450 ft | 307 kts | 262° |
| 2026-04-22 14:01 | 0.27957 | 32.60541 | 9096 ft | 305 kts | 262° |
| 2026-04-22 14:01 | 0.27774 | 32.59240 | 8945 ft | 296 kts | 262° |
| 2026-04-22 14:02 | 0.27500 | 32.57298 | 8845 ft | 274 kts | 262° |
| 2026-04-22 14:02 | 0.27335 | 32.56126 | 8790 ft | 265 kts | 262° |
| 2026-04-22 14:02 | 0.27169 | 32.54945 | 8677 ft | 260 kts | 262° |
| 2026-04-22 14:02 | 0.26921 | 32.53184 | 8398 ft | 257 kts | 262° |
| 2026-04-22 14:03 | 0.26679 | 32.51458 | 8127 ft | 254 kts | 262° |
| 2026-04-22 14:03 | 0.26489 | 32.50108 | 7921 ft | 251 kts | 262° |
| 2026-04-22 14:03 | 0.26251 | 32.48415 | 7738 ft | 241 kts | 262° |
| 2026-04-22 14:03 | 0.26025 | 32.46812 | 7618 ft | 230 kts | 261° |
| 2026-04-22 14:04 | 0.25872 | 32.45723 | 7471 ft | 225 kts | 261° |
| 2026-04-22 14:04 | 0.25665 | 32.44256 | 7258 ft | 222 kts | 261° |
| 2026-04-22 14:04 | 0.25224 | 32.42813 | 7021 ft | 221 kts | 237° |
| 2026-04-22 14:04 | 0.24149 | 32.41775 | 6849 ft | 217 kts | 208° |
| 2026-04-22 14:05 | 0.22752 | 32.41286 | 6684 ft | 219 kts | 184° |
| 2026-04-22 14:05 | 0.21358 | 32.41404 | 6536 ft | 216 kts | 168° |
| 2026-04-22 14:05 | 0.19347 | 32.41712 | 6298 ft | 203 kts | 171° |
| 2026-04-22 14:06 | 0.18033 | 32.41896 | 6093 ft | 189 kts | 171° |
| 2026-04-22 14:06 | 0.16754 | 32.42073 | 5932 ft | 190 kts | 171° |
| 2026-04-22 14:06 | 0.15904 | 32.42192 | 5842 ft | 192 kts | 171° |
| 2026-04-22 14:06 | 0.14988 | 32.42318 | 5662 ft | 180 kts | 172° |
| 2026-04-22 14:07 | 0.14356 | 32.42405 | 5549 ft | 170 kts | 171° |
| 2026-04-22 14:07 | 0.13039 | 32.42587 | 5292 ft | 166 kts | 170° |
| 2026-04-22 14:07 | 0.12047 | 32.42725 | 5084 ft | 169 kts | 170° |
| 2026-04-22 14:08 | 0.11434 | 32.42809 | 4962 ft | 168 kts | 170° |
| 2026-04-22 14:08 | 0.11089 | 32.42857 | 4897 ft | 166 kts | 171° |
| 2026-04-22 14:08 | 0.10703 | 32.42911 | 4819 ft | 165 kts | 171° |
| 2026-04-22 14:08 | 0.10123 | 32.42990 | 4706 ft | 164 kts | 171° |
| 2026-04-22 14:09 | 0.09362 | 32.43098 | 4583 ft | 165 kts | 172° |
| 2026-04-22 14:09 | 0.08388 | 32.43241 | 4384 ft | 170 kts | 172° |
| 2026-04-22 14:09 | 0.07234 | 32.43394 | 4148 ft | 170 kts | 172° |
| 2026-04-22 14:09 | 0.06092 | 32.43556 | 3916 ft | 165 kts | 172° |
| 2026-04-22 14:10 | 0.05023 | 32.43695 | 3780 ft | 152 kts | 172° |
| 2026-04-22 14:10 | 0.04190 | 32.43811 | 3785 ft | 101 kts | 170° |
| 2026-04-22 14:10 | 0.03659 | 32.43883 | 3789 ft | 61 kts | 171° |
| 2026-04-22 14:10 | 0.03305 | 32.43933 | 3780 ft | 50 kts | 173° |
| 2026-04-22 14:11 | 0.03049 | 32.43971 | 3774 ft | 20 kts | 172° |
| 2026-04-22 14:11 | 0.02955 | 32.44008 | 3771 ft | 12 kts | 142° |
| 2026-04-22 14:11 | 0.02873 | 32.44072 | 3770 ft | 18 kts | 142° |
| 2026-04-22 14:11 | 0.02849 | 32.44167 | 3769 ft | 11 kts | 10° |
| 2026-04-22 14:12 | 0.02932 | 32.44160 | 3771 ft | 16 kts | 353° |
| 2026-04-22 14:12 | 0.02993 | 32.44152 | 3772 ft | 18 kts | 354° |
| 2026-04-22 14:12 | 0.03040 | 32.44147 | 3774 ft | 19 kts | 354° |
| 2026-04-22 14:12 | 0.03111 | 32.44140 | 3777 ft | 20 kts | 354° |
| 2026-04-22 14:13 | 0.03224 | 32.44123 | 3781 ft | 20 kts | 350° |
| 2026-04-22 14:13 | 0.03378 | 32.44100 | 3790 ft | 21 kts | 352° |
| 2026-04-22 14:13 | 0.03527 | 32.44078 | 3799 ft | 22 kts | 352° |
| 2026-04-22 14:13 | 0.03695 | 32.44055 | 3803 ft | 26 kts | 352° |
| 2026-04-22 14:14 | 0.03892 | 32.44033 | 3803 ft | 30 kts | 355° |
| 2026-04-22 14:14 | 0.04104 | 32.43999 | 3798 ft | 29 kts | 353° |
| 2026-04-22 14:14 | 0.04209 | 32.44033 | 3800 ft | 12 kts | 82° |
| 2026-04-22 14:14 | 0.04220 | 32.44105 | 3804 ft | 10 kts | 81° |
| 2026-04-22 14:15 | 0.04249 | 32.44138 | 3805 ft | 10 kts | 12° |
| 2026-04-22 14:15 | 0.04304 | 32.44132 | 3804 ft | 12 kts | 349° |
| 2026-04-22 14:15 | 0.04373 | 32.44122 | 3802 ft | 12 kts | 358° |
| 2026-04-22 14:15 | 0.04440 | 32.44122 | 3799 ft | 12 kts | 28° |
| 2026-04-22 14:16 | 0.04454 | 32.44164 | 3800 ft | 5 kts | 104° |
| 2026-04-22 14:16 | 0.04456 | 32.44190 | 3800 ft | 4 kts | 82° |
| 2026-04-22 14:16 | 0.04459 | 32.44214 | 3800 ft | 0 kts | 83° |
| 2026-04-22 14:16 | 0.04459 | 32.44215 | 3800 ft | 0 kts | 83° |